Details for EasyJet at EGCC




Go Back


Latest METAR
Local Time

EGCC 240750Z AUTO 04006KT 9999 NCD 14/08 Q1023 NOSIG

24/05/2018, 09:03:28

Description
Results
EasyJet Logo
Number of Pilots based at EGCC
1 Pilots Based here
Number of EasyJet Flights Departed from EGCC
14 Flights Departed
Number of EasyJet Flights Arrived at EGCC
7 Flights Arrived
Number of EasyJet Schedules Departing from EGCC
208 Schedules
Number of EasyJet Schedules Arriving at EGCC
201 Schedules
Number of EasyJet Schedules Departing from EGCC availible today
62 Schedules Today
Number of EasyJet Schedules Arriving at EGCC availible today
60 Schedules Today
Average Landing Rate at EGCC
-211 fpm
EasyJet Average Landing Rate at EGCC
-244 fpm
Total Fuel Purchased at EGCC by EasyJet
44,169.92 kgs / 97,377.01 lbs

Pilots Based at EGCC


Pilot ID
Pilot Name
Pilot Rank
No. of Flights
No. of Flying Hours
Andrew Sutcliffe
368
1395.18
Content